sensor_id;sensor_type;location;lat;lon;timestamp;P1;durP1;ratioP1;P2;durP2;ratioP2
35981;SDS011;22058;0.000;0.000;2024-01-30T00:02:10;5.72;;;1.40;;
35981;SDS011;22058;0.000;0.000;2024-01-30T00:04:36;1.20;;;1.10;;
35981;SDS011;22058;0.000;0.000;2024-01-30T00:07:02;4.15;;;1.52;;
35981;SDS011;22058;0.000;0.000;2024-01-30T00:09:29;2.90;;;1.55;;
35981;SDS011;22058;0.000;0.000;2024-01-30T00:11:55;5.47;;;1.60;;
35981;SDS011;22058;0.000;0.000;2024-01-30T00:14:21;1.63;;;1.10;;
35981;SDS011;22058;0.000;0.000;2024-01-30T00:16:48;2.97;;;1.67;;
35981;SDS011;22058;0.000;0.000;2024-01-30T00:19:14;1.10;;;1.00;;
35981;SDS011;22058;0.000;0.000;2024-01-30T00:21:40;1.42;;;0.95;;
35981;SDS011;22058;0.000;0.000;2024-01-30T00:24:06;2.47;;;1.35;;
35981;SDS011;22058;0.000;0.000;2024-01-30T00:26:33;2.20;;;1.20;;
35981;SDS011;22058;0.000;0.000;2024-01-30T00:28:59;1.15;;;1.02;;
35981;SDS011;22058;0.000;0.000;2024-01-30T00:31:25;2.08;;;1.00;;
35981;SDS011;22058;0.000;0.000;2024-01-30T00:33:51;2.03;;;0.85;;
35981;SDS011;22058;0.000;0.000;2024-01-30T00:36:17;2.10;;;1.30;;
35981;SDS011;22058;0.000;0.000;2024-01-30T00:38:43;1.02;;;0.93;;
35981;SDS011;22058;0.000;0.000;2024-01-30T00:41:09;6.00;;;1.38;;
35981;SDS011;22058;0.000;0.000;2024-01-30T00:43:36;2.45;;;1.33;;
35981;SDS011;22058;0.000;0.000;2024-01-30T00:46:02;3.03;;;1.20;;
35981;SDS011;22058;0.000;0.000;2024-01-30T00:48:28;1.83;;;1.20;;
35981;SDS011;22058;0.000;0.000;2024-01-30T00:50:54;3.85;;;2.13;;
35981;SDS011;22058;0.000;0.000;2024-01-30T00:53:21;1.58;;;1.40;;
35981;SDS011;22058;0.000;0.000;2024-01-30T00:55:47;1.77;;;1.52;;
35981;SDS011;22058;0.000;0.000;2024-01-30T00:58:13;3.15;;;1.27;;
35981;SDS011;22058;0.000;0.000;2024-01-30T01:00:39;2.15;;;0.95;;
35981;SDS011;22058;0.000;0.000;2024-01-30T01:03:05;1.38;;;0.88;;
35981;SDS011;22058;0.000;0.000;2024-01-30T01:05:31;2.22;;;1.38;;
35981;SDS011;22058;0.000;0.000;2024-01-30T01:07:57;2.08;;;0.98;;
35981;SDS011;22058;0.000;0.000;2024-01-30T01:10:23;1.23;;;0.93;;
35981;SDS011;22058;0.000;0.000;2024-01-30T01:12:50;3.08;;;1.35;;
35981;SDS011;22058;0.000;0.000;2024-01-30T01:15:16;1.63;;;0.90;;
35981;SDS011;22058;0.000;0.000;2024-01-30T01:17:42;2.72;;;1.00;;
35981;SDS011;22058;0.000;0.000;2024-01-30T01:20:08;2.28;;;1.38;;
35981;SDS011;22058;0.000;0.000;2024-01-30T01:22:35;1.90;;;0.90;;
35981;SDS011;22058;0.000;0.000;2024-01-30T01:25:04;1.85;;;0.93;;
35981;SDS011;22058;0.000;0.000;2024-01-30T01:27:33;2.78;;;1.10;;
35981;SDS011;22058;0.000;0.000;2024-01-30T01:30:03;1.23;;;1.00;;
35981;SDS011;22058;0.000;0.000;2024-01-30T01:32:31;1.15;;;1.05;;
35981;SDS011;22058;0.000;0.000;2024-01-30T01:34:57;2.78;;;1.15;;
35981;SDS011;22058;0.000;0.000;2024-01-30T01:37:23;1.50;;;1.17;;
35981;SDS011;22058;0.000;0.000;2024-01-30T01:39:51;1.15;;;1.00;;
35981;SDS011;22058;0.000;0.000;2024-01-30T01:42:18;3.83;;;1.27;;
35981;SDS011;22058;0.000;0.000;2024-01-30T01:44:44;1.17;;;0.82;;
35981;SDS011;22058;0.000;0.000;2024-01-30T01:47:10;1.55;;;1.00;;
35981;SDS011;22058;0.000;0.000;2024-01-30T01:49:36;1.90;;;1.20;;
35981;SDS011;22058;0.000;0.000;2024-01-30T01:52:03;1.65;;;1.30;;
35981;SDS011;22058;0.000;0.000;2024-01-30T01:54:29;1.85;;;1.00;;
35981;SDS011;22058;0.000;0.000;2024-01-30T01:56:56;1.70;;;0.90;;
35981;SDS011;22058;0.000;0.000;2024-01-30T01:59:22;2.15;;;0.98;;
35981;SDS011;22058;0.000;0.000;2024-01-30T02:01:49;1.33;;;1.05;;
35981;SDS011;22058;0.000;0.000;2024-01-30T02:04:16;1.73;;;0.90;;
35981;SDS011;22058;0.000;0.000;2024-01-30T02:06:43;0.73;;;0.73;;
35981;SDS011;22058;0.000;0.000;2024-01-30T02:09:09;1.30;;;1.13;;
35981;SDS011;22058;0.000;0.000;2024-01-30T02:11:35;1.20;;;0.93;;
35981;SDS011;22058;0.000;0.000;2024-01-30T02:14:02;2.42;;;1.17;;
35981;SDS011;22058;0.000;0.000;2024-01-30T02:16:29;3.92;;;1.30;;
35981;SDS011;22058;0.000;0.000;2024-01-30T02:18:55;1.10;;;1.00;;
35981;SDS011;22058;0.000;0.000;2024-01-30T02:21:21;1.70;;;1.05;;
35981;SDS011;22058;0.000;0.000;2024-01-30T02:23:47;1.48;;;1.00;;
35981;SDS011;22058;0.000;0.000;2024-01-30T02:26:15;1.10;;;0.95;;
35981;SDS011;22058;0.000;0.000;2024-01-30T02:28:41;4.72;;;1.65;;
35981;SDS011;22058;0.000;0.000;2024-01-30T02:31:07;2.17;;;1.00;;
35981;SDS011;22058;0.000;0.000;2024-01-30T02:33:33;1.95;;;1.48;;
35981;SDS011;22058;0.000;0.000;2024-01-30T02:35:59;2.55;;;1.10;;
35981;SDS011;22058;0.000;0.000;2024-01-30T02:38:25;1.95;;;0.95;;
35981;SDS011;22058;0.000;0.000;2024-01-30T02:40:54;2.17;;;1.40;;
35981;SDS011;22058;0.000;0.000;2024-01-30T02:43:21;1.25;;;1.08;;
35981;SDS011;22058;0.000;0.000;2024-01-30T02:45:47;1.25;;;1.15;;
35981;SDS011;22058;0.000;0.000;2024-01-30T02:48:13;2.03;;;1.20;;
35981;SDS011;22058;0.000;0.000;2024-01-30T02:50:39;1.65;;;1.27;;
35981;SDS011;22058;0.000;0.000;2024-01-30T02:53:06;2.30;;;1.33;;
35981;SDS011;22058;0.000;0.000;2024-01-30T02:55:32;0.98;;;0.82;;
35981;SDS011;22058;0.000;0.000;2024-01-30T02:57:58;1.77;;;1.35;;
35981;SDS011;22058;0.000;0.000;2024-01-30T03:00:25;1.63;;;1.45;;
35981;SDS011;22058;0.000;0.000;2024-01-30T03:02:51;1.95;;;0.98;;
35981;SDS011;22058;0.000;0.000;2024-01-30T03:05:17;1.63;;;1.10;;
35981;SDS011;22058;0.000;0.000;2024-01-30T03:07:43;2.75;;;1.45;;
35981;SDS011;22058;0.000;0.000;2024-01-30T03:10:09;1.45;;;1.13;;
35981;SDS011;22058;0.000;0.000;2024-01-30T03:12:35;2.33;;;1.10;;
35981;SDS011;22058;0.000;0.000;2024-01-30T03:15:01;3.38;;;1.25;;
35981;SDS011;22058;0.000;0.000;2024-01-30T03:17:27;5.95;;;2.10;;
35981;SDS011;22058;0.000;0.000;2024-01-30T03:19:54;1.15;;;1.00;;
35981;SDS011;22058;0.000;0.000;2024-01-30T03:22:20;1.30;;;1.20;;
35981;SDS011;22058;0.000;0.000;2024-01-30T03:24:46;3.45;;;1.00;;
35981;SDS011;22058;0.000;0.000;2024-01-30T03:27:12;1.85;;;1.33;;
35981;SDS011;22058;0.000;0.000;2024-01-30T03:29:38;2.25;;;1.10;;
35981;SDS011;22058;0.000;0.000;2024-01-30T03:32:04;2.97;;;1.27;;
35981;SDS011;22058;0.000;0.000;2024-01-30T03:34:30;1.63;;;1.10;;
35981;SDS011;22058;0.000;0.000;2024-01-30T03:36:56;1.00;;;0.90;;
35981;SDS011;22058;0.000;0.000;2024-01-30T03:39:23;1.10;;;0.93;;
35981;SDS011;22058;0.000;0.000;2024-01-30T03:41:49;1.27;;;1.17;;
35981;SDS011;22058;0.000;0.000;2024-01-30T03:44:15;2.42;;;0.90;;
35981;SDS011;22058;0.000;0.000;2024-01-30T03:46:42;1.77;;;1.33;;
35981;SDS011;22058;0.000;0.000;2024-01-30T03:49:09;1.10;;;1.00;;
35981;SDS011;22058;0.000;0.000;2024-01-30T03:51:35;1.95;;;1.30;;
35981;SDS011;22058;0.000;0.000;2024-01-30T03:54:01;2.30;;;1.25;;
35981;SDS011;22058;0.000;0.000;2024-01-30T03:56:27;2.08;;;1.38;;
35981;SDS011;22058;0.000;0.000;2024-01-30T03:58:53;1.33;;;1.20;;
35981;SDS011;22058;0.000;0.000;2024-01-30T04:01:21;1.23;;;1.13;;
35981;SDS011;22058;0.000;0.000;2024-01-30T04:03:47;1.30;;;1.20;;
35981;SDS011;22058;0.000;0.000;2024-01-30T04:06:13;2.88;;;1.17;;
35981;SDS011;22058;0.000;0.000;2024-01-30T04:08:39;1.60;;;1.05;;
35981;SDS011;22058;0.000;0.000;2024-01-30T04:11:05;0.88;;;0.85;;
35981;SDS011;22058;0.000;0.000;2024-01-30T04:13:34;1.38;;;1.25;;
35981;SDS011;22058;0.000;0.000;2024-01-30T04:16:01;1.35;;;1.25;;
35981;SDS011;22058;0.000;0.000;2024-01-30T04:18:27;1.50;;;1.40;;
35981;SDS011;22058;0.000;0.000;2024-01-30T04:20:54;1.70;;;1.27;;
35981;SDS011;22058;0.000;0.000;2024-01-30T04:23:20;1.65;;;1.10;;
35981;SDS011;22058;0.000;0.000;2024-01-30T04:25:46;1.63;;;1.13;;
35981;SDS011;22058;0.000;0.000;2024-01-30T04:28:12;1.10;;;1.00;;
35981;SDS011;22058;0.000;0.000;2024-01-30T04:30:39;1.52;;;0.90;;
35981;SDS011;22058;0.000;0.000;2024-01-30T04:33:05;1.20;;;1.00;;
35981;SDS011;22058;0.000;0.000;2024-01-30T04:35:31;2.67;;;1.25;;
35981;SDS011;22058;0.000;0.000;2024-01-30T04:37:57;1.20;;;1.10;;
35981;SDS011;22058;0.000;0.000;2024-01-30T04:40:23;2.20;;;1.00;;
35981;SDS011;22058;0.000;0.000;2024-01-30T04:42:49;1.48;;;0.98;;
35981;SDS011;22058;0.000;0.000;2024-01-30T04:45:15;2.80;;;1.10;;
35981;SDS011;22058;0.000;0.000;2024-01-30T04:47:42;1.50;;;1.33;;
35981;SDS011;22058;0.000;0.000;2024-01-30T04:50:08;1.73;;;1.02;;
35981;SDS011;22058;0.000;0.000;2024-01-30T04:52:34;1.30;;;1.20;;
35981;SDS011;22058;0.000;0.000;2024-01-30T04:55:01;1.45;;;1.20;;
35981;SDS011;22058;0.000;0.000;2024-01-30T04:57:27;1.30;;;1.02;;
35981;SDS011;22058;0.000;0.000;2024-01-30T04:59:53;1.45;;;1.30;;
35981;SDS011;22058;0.000;0.000;2024-01-30T05:02:19;2.15;;;1.23;;
35981;SDS011;22058;0.000;0.000;2024-01-30T05:04:45;1.85;;;1.05;;
35981;SDS011;22058;0.000;0.000;2024-01-30T05:07:11;1.15;;;1.00;;
35981;SDS011;22058;0.000;0.000;2024-01-30T05:09:39;1.92;;;1.10;;
35981;SDS011;22058;0.000;0.000;2024-01-30T05:12:05;2.08;;;1.25;;
35981;SDS011;22058;0.000;0.000;2024-01-30T05:14:31;1.90;;;0.90;;
35981;SDS011;22058;0.000;0.000;2024-01-30T05:16:57;2.15;;;1.30;;
35981;SDS011;22058;0.000;0.000;2024-01-30T05:19:23;1.05;;;0.95;;
35981;SDS011;22058;0.000;0.000;2024-01-30T05:21:50;2.30;;;1.45;;
35981;SDS011;22058;0.000;0.000;2024-01-30T05:24:16;3.20;;;1.75;;
35981;SDS011;22058;0.000;0.000;2024-01-30T05:26:42;1.88;;;1.48;;
35981;SDS011;22058;0.000;0.000;2024-01-30T05:29:08;3.40;;;1.35;;
35981;SDS011;22058;0.000;0.000;2024-01-30T05:31:34;1.58;;;1.48;;
35981;SDS011;22058;0.000;0.000;2024-01-30T05:34:01;2.08;;;1.33;;
35981;SDS011;22058;0.000;0.000;2024-01-30T05:36:27;3.30;;;1.52;;
35981;SDS011;22058;0.000;0.000;2024-01-30T05:38:53;7.70;;;1.90;;
35981;SDS011;22058;0.000;0.000;2024-01-30T05:41:19;1.77;;;1.20;;
35981;SDS011;22058;0.000;0.000;2024-01-30T05:43:48;4.35;;;1.45;;
35981;SDS011;22058;0.000;0.000;2024-01-30T05:46:15;6.75;;;1.67;;
35981;SDS011;22058;0.000;0.000;2024-01-30T05:48:41;10.45;;;1.55;;
35981;SDS011;22058;0.000;0.000;2024-01-30T05:51:07;7.70;;;2.85;;
35981;SDS011;22058;0.000;0.000;2024-01-30T05:53:33;1.80;;;1.27;;
35981;SDS011;22058;0.000;0.000;2024-01-30T05:56:03;1.65;;;1.23;;
35981;SDS011;22058;0.000;0.000;2024-01-30T05:58:29;1.90;;;1.30;;
35981;SDS011;22058;0.000;0.000;2024-01-30T06:00:59;1.30;;;1.20;;
35981;SDS011;22058;0.000;0.000;2024-01-30T06:03:25;2.97;;;1.42;;
35981;SDS011;22058;0.000;0.000;2024-01-30T06:05:51;2.22;;;1.38;;
35981;SDS011;22058;0.000;0.000;2024-01-30T06:08:17;3.70;;;1.50;;
35981;SDS011;22058;0.000;0.000;2024-01-30T06:10:43;2.00;;;0.90;;
35981;SDS011;22058;0.000;0.000;2024-01-30T06:13:09;4.18;;;1.70;;
35981;SDS011;22058;0.000;0.000;2024-01-30T06:15:36;3.88;;;1.20;;
35981;SDS011;22058;0.000;0.000;2024-01-30T06:18:02;1.30;;;1.20;;
35981;SDS011;22058;0.000;0.000;2024-01-30T06:20:28;1.65;;;1.38;;
35981;SDS011;22058;0.000;0.000;2024-01-30T06:22:54;5.03;;;1.33;;
35981;SDS011;22058;0.000;0.000;2024-01-30T06:25:20;2.08;;;0.98;;
35981;SDS011;22058;0.000;0.000;2024-01-30T06:27:46;2.35;;;1.30;;
35981;SDS011;22058;0.000;0.000;2024-01-30T06:30:13;1.67;;;1.20;;
35981;SDS011;22058;0.000;0.000;2024-01-30T06:32:39;5.90;;;1.55;;
35981;SDS011;22058;0.000;0.000;2024-01-30T06:35:05;2.00;;;1.58;;
35981;SDS011;22058;0.000;0.000;2024-01-30T06:37:31;3.83;;;1.60;;
35981;SDS011;22058;0.000;0.000;2024-01-30T06:39:58;2.60;;;1.30;;
35981;SDS011;22058;0.000;0.000;2024-01-30T06:42:24;4.03;;;1.52;;
35981;SDS011;22058;0.000;0.000;2024-01-30T06:44:50;2.10;;;1.30;;
35981;SDS011;22058;0.000;0.000;2024-01-30T06:47:16;2.17;;;1.27;;
35981;SDS011;22058;0.000;0.000;2024-01-30T06:49:42;2.55;;;1.45;;
35981;SDS011;22058;0.000;0.000;2024-01-30T06:52:09;1.73;;;1.20;;
35981;SDS011;22058;0.000;0.000;2024-01-30T06:54:35;4.97;;;1.52;;
35981;SDS011;22058;0.000;0.000;2024-01-30T06:57:01;3.50;;;1.10;;
35981;SDS011;22058;0.000;0.000;2024-01-30T06:59:28;1.65;;;1.25;;
35981;SDS011;22058;0.000;0.000;2024-01-30T07:01:54;5.30;;;1.33;;
35981;SDS011;22058;0.000;0.000;2024-01-30T07:04:20;2.63;;;1.30;;
35981;SDS011;22058;0.000;0.000;2024-01-30T07:06:46;1.83;;;1.02;;
35981;SDS011;22058;0.000;0.000;2024-01-30T07:09:12;1.13;;;1.10;;
35981;SDS011;22058;0.000;0.000;2024-01-30T07:11:39;2.22;;;1.10;;
35981;SDS011;22058;0.000;0.000;2024-01-30T07:14:05;1.73;;;1.27;;
35981;SDS011;22058;0.000;0.000;2024-01-30T07:16:31;6.50;;;1.65;;
35981;SDS011;22058;0.000;0.000;2024-01-30T07:18:57;3.28;;;1.40;;
35981;SDS011;22058;0.000;0.000;2024-01-30T07:21:23;1.63;;;1.38;;
35981;SDS011;22058;0.000;0.000;2024-01-30T07:23:56;1.63;;;1.48;;
35981;SDS011;22058;0.000;0.000;2024-01-30T07:26:22;3.45;;;1.52;;
35981;SDS011;22058;0.000;0.000;2024-01-30T07:28:48;2.45;;;1.30;;
35981;SDS011;22058;0.000;0.000;2024-01-30T07:31:15;4.88;;;1.67;;
35981;SDS011;22058;0.000;0.000;2024-01-30T07:33:41;4.45;;;1.52;;
35981;SDS011;22058;0.000;0.000;2024-01-30T07:36:07;1.58;;;1.10;;
35981;SDS011;22058;0.000;0.000;2024-01-30T07:38:34;1.80;;;1.40;;
35981;SDS011;22058;0.000;0.000;2024-01-30T07:41:00;1.45;;;1.35;;
35981;SDS011;22058;0.000;0.000;2024-01-30T07:43:26;2.40;;;1.30;;
35981;SDS011;22058;0.000;0.000;2024-01-30T07:45:52;3.38;;;1.77;;
35981;SDS011;22058;0.000;0.000;2024-01-30T07:48:18;1.40;;;1.20;;
35981;SDS011;22058;0.000;0.000;2024-01-30T07:50:44;1.70;;;1.05;;
35981;SDS011;22058;0.000;0.000;2024-01-30T07:53:11;7.85;;;1.95;;
35981;SDS011;22058;0.000;0.000;2024-01-30T07:55:37;1.92;;;1.17;;
35981;SDS011;22058;0.000;0.000;2024-01-30T07:58:03;3.95;;;1.60;;
35981;SDS011;22058;0.000;0.000;2024-01-30T08:00:30;2.38;;;1.63;;
35981;SDS011;22058;0.000;0.000;2024-01-30T08:02:56;5.97;;;1.50;;
35981;SDS011;22058;0.000;0.000;2024-01-30T08:05:23;6.20;;;1.60;;
35981;SDS011;22058;0.000;0.000;2024-01-30T08:07:50;1.75;;;1.30;;
35981;SDS011;22058;0.000;0.000;2024-01-30T08:10:16;2.80;;;1.38;;
35981;SDS011;22058;0.000;0.000;2024-01-30T08:12:45;4.43;;;1.30;;
35981;SDS011;22058;0.000;0.000;2024-01-30T08:15:11;4.85;;;1.60;;
35981;SDS011;22058;0.000;0.000;2024-01-30T08:17:38;2.40;;;1.70;;
35981;SDS011;22058;0.000;0.000;2024-01-30T08:20:04;6.30;;;1.75;;
35981;SDS011;22058;0.000;0.000;2024-01-30T08:22:31;6.82;;;2.67;;
35981;SDS011;22058;0.000;0.000;2024-01-30T08:24:57;2.58;;;1.30;;
35981;SDS011;22058;0.000;0.000;2024-01-30T08:27:23;3.97;;;1.48;;
35981;SDS011;22058;0.000;0.000;2024-01-30T08:29:49;7.93;;;2.13;;
35981;SDS011;22058;0.000;0.000;2024-01-30T08:32:15;1.30;;;1.20;;
35981;SDS011;22058;0.000;0.000;2024-01-30T08:34:42;4.55;;;1.38;;
35981;SDS011;22058;0.000;0.000;2024-01-30T08:37:08;1.58;;;1.25;;
35981;SDS011;22058;0.000;0.000;2024-01-30T08:39:34;1.40;;;1.05;;
35981;SDS011;22058;0.000;0.000;2024-01-30T08:42:00;3.45;;;1.45;;
35981;SDS011;22058;0.000;0.000;2024-01-30T08:44:26;2.42;;;1.30;;
35981;SDS011;22058;0.000;0.000;2024-01-30T08:46:52;2.10;;;1.33;;
35981;SDS011;22058;0.000;0.000;2024-01-30T08:49:19;3.00;;;1.30;;
35981;SDS011;22058;0.000;0.000;2024-01-30T08:51:46;3.03;;;1.02;;
35981;SDS011;22058;0.000;0.000;2024-01-30T08:54:12;2.42;;;1.50;;
35981;SDS011;22058;0.000;0.000;2024-01-30T08:56:38;3.08;;;1.50;;
35981;SDS011;22058;0.000;0.000;2024-01-30T08:59:04;2.33;;;1.50;;
35981;SDS011;22058;0.000;0.000;2024-01-30T09:01:30;1.38;;;1.02;;
35981;SDS011;22058;0.000;0.000;2024-01-30T09:03:57;3.13;;;1.42;;
35981;SDS011;22058;0.000;0.000;2024-01-30T09:06:23;4.78;;;1.85;;
35981;SDS011;22058;0.000;0.000;2024-01-30T09:08:51;2.95;;;1.80;;
35981;SDS011;22058;0.000;0.000;2024-01-30T09:11:17;5.63;;;1.50;;
35981;SDS011;22058;0.000;0.000;2024-01-30T09:13:44;1.67;;;1.35;;
35981;SDS011;22058;0.000;0.000;2024-01-30T09:16:10;1.83;;;1.30;;
35981;SDS011;22058;0.000;0.000;2024-01-30T09:18:36;6.10;;;1.90;;
35981;SDS011;22058;0.000;0.000;2024-01-30T09:21:02;5.32;;;1.60;;
35981;SDS011;22058;0.000;0.000;2024-01-30T09:23:28;11.25;;;2.92;;
35981;SDS011;22058;0.000;0.000;2024-01-30T09:25:54;3.88;;;1.50;;
35981;SDS011;22058;0.000;0.000;2024-01-30T09:28:21;5.53;;;1.70;;
35981;SDS011;22058;0.000;0.000;2024-01-30T09:30:47;6.80;;;1.20;;
35981;SDS011;22058;0.000;0.000;2024-01-30T09:33:13;4.13;;;1.40;;
35981;SDS011;22058;0.000;0.000;2024-01-30T09:35:39;9.95;;;2.20;;
35981;SDS011;22058;0.000;0.000;2024-01-30T09:38:05;5.60;;;1.70;;
35981;SDS011;22058;0.000;0.000;2024-01-30T09:40:31;1.52;;;1.33;;
35981;SDS011;22058;0.000;0.000;2024-01-30T09:42:58;6.68;;;1.38;;
35981;SDS011;22058;0.000;0.000;2024-01-30T09:45:27;3.05;;;1.33;;
35981;SDS011;22058;0.000;0.000;2024-01-30T09:47:54;2.38;;;1.50;;
35981;SDS011;22058;0.000;0.000;2024-01-30T09:50:20;2.08;;;1.60;;
35981;SDS011;22058;0.000;0.000;2024-01-30T09:52:47;2.17;;;1.60;;
35981;SDS011;22058;0.000;0.000;2024-01-30T09:55:13;7.47;;;2.08;;
35981;SDS011;22058;0.000;0.000;2024-01-30T09:57:41;1.92;;;1.45;;
35981;SDS011;22058;0.000;0.000;2024-01-30T10:00:07;5.80;;;1.63;;
35981;SDS011;22058;0.000;0.000;2024-01-30T10:02:34;5.78;;;2.08;;
35981;SDS011;22058;0.000;0.000;2024-01-30T10:05:00;5.55;;;1.38;;
35981;SDS011;22058;0.000;0.000;2024-01-30T10:07:27;3.28;;;1.63;;
35981;SDS011;22058;0.000;0.000;2024-01-30T10:09:53;1.77;;;1.30;;
35981;SDS011;22058;0.000;0.000;2024-01-30T10:12:23;3.30;;;1.55;;
35981;SDS011;22058;0.000;0.000;2024-01-30T10:14:49;4.32;;;2.70;;
35981;SDS011;22058;0.000;0.000;2024-01-30T10:17:15;5.45;;;1.50;;
35981;SDS011;22058;0.000;0.000;2024-01-30T10:19:41;3.03;;;1.42;;
35981;SDS011;22058;0.000;0.000;2024-01-30T10:22:07;3.67;;;1.65;;
35981;SDS011;22058;0.000;0.000;2024-01-30T10:24:34;1.42;;;1.30;;
35981;SDS011;22058;0.000;0.000;2024-01-30T10:27:00;1.98;;;1.65;;
35981;SDS011;22058;0.000;0.000;2024-01-30T10:29:27;4.72;;;1.55;;
35981;SDS011;22058;0.000;0.000;2024-01-30T10:32:03;5.97;;;1.42;;
35981;SDS011;22058;0.000;0.000;2024-01-30T10:34:29;3.13;;;2.13;;
35981;SDS011;22058;0.000;0.000;2024-01-30T10:37:17;1.70;;;1.60;;
35981;SDS011;22058;0.000;0.000;2024-01-30T10:39:45;2.83;;;1.77;;
35981;SDS011;22058;0.000;0.000;2024-01-30T10:42:13;4.53;;;2.85;;
35981;SDS011;22058;0.000;0.000;2024-01-30T10:47:12;1.98;;;1.70;;
35981;SDS011;22058;0.000;0.000;2024-01-30T10:49:39;10.20;;;2.28;;
35981;SDS011;22058;0.000;0.000;2024-01-30T10:52:08;2.70;;;1.55;;
35981;SDS011;22058;0.000;0.000;2024-01-30T10:54:34;3.58;;;1.90;;
35981;SDS011;22058;0.000;0.000;2024-01-30T10:57:01;5.00;;;2.03;;
35981;SDS011;22058;0.000;0.000;2024-01-30T10:59:28;5.78;;;1.52;;
35981;SDS011;22058;0.000;0.000;2024-01-30T11:01:56;4.43;;;2.10;;
35981;SDS011;22058;0.000;0.000;2024-01-30T11:04:23;8.23;;;2.00;;
35981;SDS011;22058;0.000;0.000;2024-01-30T11:06:50;4.88;;;1.48;;
35981;SDS011;22058;0.000;0.000;2024-01-30T11:09:17;5.03;;;2.03;;
35981;SDS011;22058;0.000;0.000;2024-01-30T11:11:56;6.03;;;1.77;;
35981;SDS011;22058;0.000;0.000;2024-01-30T11:14:27;3.13;;;1.67;;
35981;SDS011;22058;0.000;0.000;2024-01-30T11:16:58;4.05;;;1.92;;
35981;SDS011;22058;0.000;0.000;2024-01-30T11:19:25;4.63;;;2.22;;
35981;SDS011;22058;0.000;0.000;2024-01-30T11:21:52;3.60;;;1.40;;
35981;SDS011;22058;0.000;0.000;2024-01-30T11:24:19;4.00;;;1.60;;
35981;SDS011;22058;0.000;0.000;2024-01-30T11:26:55;2.78;;;2.10;;
35981;SDS011;22058;0.000;0.000;2024-01-30T11:29:27;5.97;;;1.85;;
35981;SDS011;22058;0.000;0.000;2024-01-30T11:31:56;4.13;;;1.48;;
35981;SDS011;22058;0.000;0.000;2024-01-30T11:34:23;1.92;;;1.45;;
35981;SDS011;22058;0.000;0.000;2024-01-30T11:36:55;2.75;;;1.63;;
35981;SDS011;22058;0.000;0.000;2024-01-30T11:39:25;3.67;;;2.03;;
35981;SDS011;22058;0.000;0.000;2024-01-30T11:41:51;4.43;;;2.10;;
35981;SDS011;22058;0.000;0.000;2024-01-30T11:44:21;4.10;;;1.40;;
35981;SDS011;22058;0.000;0.000;2024-01-30T11:46:48;3.25;;;2.03;;
35981;SDS011;22058;0.000;0.000;2024-01-30T11:49:14;8.07;;;1.83;;
35981;SDS011;22058;0.000;0.000;2024-01-30T11:51:40;1.90;;;1.50;;
35981;SDS011;22058;0.000;0.000;2024-01-30T11:54:07;4.13;;;2.38;;
35981;SDS011;22058;0.000;0.000;2024-01-30T11:56:33;2.88;;;1.30;;
35981;SDS011;22058;0.000;0.000;2024-01-30T11:59:00;5.30;;;1.70;;
35981;SDS011;22058;0.000;0.000;2024-01-30T12:01:26;7.28;;;2.10;;
35981;SDS011;22058;0.000;0.000;2024-01-30T12:03:53;4.15;;;1.75;;
35981;SDS011;22058;0.000;0.000;2024-01-30T12:06:19;7.85;;;2.55;;
35981;SDS011;22058;0.000;0.000;2024-01-30T12:08:58;6.32;;;1.80;;
35981;SDS011;22058;0.000;0.000;2024-01-30T12:11:24;6.93;;;2.10;;
35981;SDS011;22058;0.000;0.000;2024-01-30T12:13:51;10.20;;;2.75;;
35981;SDS011;22058;0.000;0.000;2024-01-30T12:16:17;2.63;;;2.17;;
35981;SDS011;22058;0.000;0.000;2024-01-30T12:18:43;5.57;;;2.15;;
35981;SDS011;22058;0.000;0.000;2024-01-30T12:21:10;6.75;;;2.13;;
35981;SDS011;22058;0.000;0.000;2024-01-30T12:23:36;4.60;;;2.00;;
35981;SDS011;22058;0.000;0.000;2024-01-30T12:26:02;5.13;;;2.00;;
35981;SDS011;22058;0.000;0.000;2024-01-30T12:28:29;6.95;;;2.47;;
35981;SDS011;22058;0.000;0.000;2024-01-30T12:30:55;3.60;;;2.10;;
35981;SDS011;22058;0.000;0.000;2024-01-30T12:33:26;5.15;;;1.80;;
35981;SDS011;22058;0.000;0.000;2024-01-30T12:35:53;3.13;;;2.00;;
35981;SDS011;22058;0.000;0.000;2024-01-30T12:38:19;4.45;;;2.08;;
35981;SDS011;22058;0.000;0.000;2024-01-30T12:40:46;7.60;;;2.10;;
35981;SDS011;22058;0.000;0.000;2024-01-30T12:43:13;9.82;;;2.00;;
35981;SDS011;22058;0.000;0.000;2024-01-30T12:45:40;4.97;;;1.83;;
35981;SDS011;22058;0.000;0.000;2024-01-30T12:48:07;7.65;;;2.10;;
35981;SDS011;22058;0.000;0.000;2024-01-30T12:50:33;4.45;;;1.80;;
35981;SDS011;22058;0.000;0.000;2024-01-30T12:52:59;3.58;;;1.73;;
35981;SDS011;22058;0.000;0.000;2024-01-30T12:55:25;7.60;;;2.13;;
35981;SDS011;22058;0.000;0.000;2024-01-30T12:57:53;6.55;;;1.90;;
35981;SDS011;22058;0.000;0.000;2024-01-30T13:00:20;5.75;;;2.20;;
35981;SDS011;22058;0.000;0.000;2024-01-30T13:02:47;6.03;;;2.28;;
35981;SDS011;22058;0.000;0.000;2024-01-30T13:05:14;8.80;;;2.63;;
35981;SDS011;22058;0.000;0.000;2024-01-30T13:07:40;3.78;;;2.15;;
35981;SDS011;22058;0.000;0.000;2024-01-30T13:10:06;6.80;;;2.58;;
35981;SDS011;22058;0.000;0.000;2024-01-30T13:12:32;6.13;;;2.08;;
35981;SDS011;22058;0.000;0.000;2024-01-30T13:14:58;6.15;;;2.47;;
35981;SDS011;22058;0.000;0.000;2024-01-30T13:17:29;6.22;;;2.53;;
35981;SDS011;22058;0.000;0.000;2024-01-30T13:19:56;7.45;;;2.20;;
35981;SDS011;22058;0.000;0.000;2024-01-30T13:22:22;10.68;;;3.08;;
35981;SDS011;22058;0.000;0.000;2024-01-30T13:24:48;7.10;;;2.42;;
35981;SDS011;22058;0.000;0.000;2024-01-30T13:27:14;7.22;;;2.38;;
35981;SDS011;22058;0.000;0.000;2024-01-30T13:29:40;8.57;;;2.10;;
35981;SDS011;22058;0.000;0.000;2024-01-30T13:32:06;4.60;;;2.10;;
35981;SDS011;22058;0.000;0.000;2024-01-30T13:34:32;8.10;;;2.08;;
35981;SDS011;22058;0.000;0.000;2024-01-30T13:36:59;4.53;;;2.08;;
35981;SDS011;22058;0.000;0.000;2024-01-30T13:39:25;5.18;;;2.08;;
35981;SDS011;22058;0.000;0.000;2024-01-30T13:41:51;8.13;;;2.67;;
35981;SDS011;22058;0.000;0.000;2024-01-30T13:44:17;4.50;;;2.00;;
35981;SDS011;22058;0.000;0.000;2024-01-30T13:46:44;5.45;;;2.10;;
35981;SDS011;22058;0.000;0.000;2024-01-30T13:49:11;4.30;;;2.38;;
35981;SDS011;22058;0.000;0.000;2024-01-30T13:51:37;5.82;;;1.83;;
35981;SDS011;22058;0.000;0.000;2024-01-30T13:54:03;4.88;;;1.92;;
35981;SDS011;22058;0.000;0.000;2024-01-30T13:56:29;6.43;;;2.20;;
35981;SDS011;22058;0.000;0.000;2024-01-30T13:58:56;7.25;;;1.70;;
35981;SDS011;22058;0.000;0.000;2024-01-30T14:01:22;6.35;;;2.53;;
35981;SDS011;22058;0.000;0.000;2024-01-30T14:03:49;3.65;;;2.28;;
35981;SDS011;22058;0.000;0.000;2024-01-30T14:06:15;7.75;;;2.67;;
35981;SDS011;22058;0.000;0.000;2024-01-30T14:08:41;4.40;;;1.90;;
35981;SDS011;22058;0.000;0.000;2024-01-30T14:11:07;5.97;;;2.60;;
35981;SDS011;22058;0.000;0.000;2024-01-30T14:13:33;8.13;;;2.50;;
35981;SDS011;22058;0.000;0.000;2024-01-30T14:15:59;2.70;;;2.20;;
35981;SDS011;22058;0.000;0.000;2024-01-30T14:18:26;7.05;;;2.42;;
35981;SDS011;22058;0.000;0.000;2024-01-30T14:20:52;7.22;;;2.40;;
35981;SDS011;22058;0.000;0.000;2024-01-30T14:23:19;9.02;;;2.10;;
35981;SDS011;22058;0.000;0.000;2024-01-30T14:25:46;3.97;;;1.85;;
35981;SDS011;22058;0.000;0.000;2024-01-30T14:28:12;4.95;;;2.20;;
35981;SDS011;22058;0.000;0.000;2024-01-30T14:30:39;5.20;;;2.13;;
35981;SDS011;22058;0.000;0.000;2024-01-30T14:33:05;3.92;;;2.25;;
35981;SDS011;22058;0.000;0.000;2024-01-30T14:35:32;7.32;;;2.35;;
35981;SDS011;22058;0.000;0.000;2024-01-30T14:37:59;4.68;;;2.10;;
35981;SDS011;22058;0.000;0.000;2024-01-30T14:40:25;3.25;;;2.30;;
35981;SDS011;22058;0.000;0.000;2024-01-30T14:42:51;13.63;;;2.05;;
35981;SDS011;22058;0.000;0.000;2024-01-30T14:45:17;13.20;;;2.22;;
35981;SDS011;22058;0.000;0.000;2024-01-30T14:47:44;5.35;;;1.40;;
35981;SDS011;22058;0.000;0.000;2024-01-30T14:50:10;9.68;;;2.00;;
35981;SDS011;22058;0.000;0.000;2024-01-30T14:52:36;6.63;;;1.77;;
35981;SDS011;22058;0.000;0.000;2024-01-30T14:55:05;4.28;;;2.00;;
35981;SDS011;22058;0.000;0.000;2024-01-30T14:57:31;4.45;;;1.80;;
35981;SDS011;22058;0.000;0.000;2024-01-30T14:59:57;4.10;;;2.63;;